LEGTLEBZ

Guest
Details From LEGT - Getafe
To LEBZ - Talavera La Real
Flight Number -
Tags generated
Created
Modified
Stats Distance 167 nm / 310 km
Max Altitude 18,700 ft / 5,700 m
Waypoints 3
Social Downloads 2
Likes 0
Share VATSIM

Download

Looking for another format? Having issues loading an existing format? Contact us
Advertisement - Login to hide

Notes

Basic altitude profile: - Ascent Rate: 2500ft/min - Ascent Speed: 250kts - Cruise Altitude: 35000ft - Cruise Speed: 420kts - Descent Rate: 1500ft/min - Descent Speed: 250kts Options: - Use NATs: yes - Use PACOTS: yes - Use low airways: yes - Use high airways: yes

Route

LEGT MELON LEBZ

ID Type Via Altitude Latitude Longitude Leg Dist Tot Dist Heading (true) Name
O LEGT APT - 0 ft / 0 m 40.29315˚ -3.72248˚ - 0 nm - Getafe
MELON FIX - 18,700 ft / 5,700 m 39.76671˚ -5.31872˚ 79 nm 79 nm 247° / 246° -
O LEBZ APT - 0 ft / 0 m 38.89127˚ -6.82126˚ 87 nm 167 nm 233° / 233° Talavera La Real

Altitude Profile

Advertisement - Login to hide

Weather


0- 5 10 15 20 25 30 35+ Temperature / ° C

Clouds and Precipitation
Forecast for 2017-12-13 12:00 UTC. Updated 2 hours ago

Ground ~20,000 ft ~40,000 ft Winds

LEGT

Details ICAO LEGT
Name Getafe
Region Spain
Timezone Europe/Madrid (UTC+1.0)
Stats Elevation 2,029 ft / 618 m (AMSL)
Location 40.293152° -3.722481°
Runways 2
Magnetic Variation 0.727° W

METAR

LEGT 131100Z 17003KT CAVOK 04/01 Q1027

Decode

TAF

Not found

Departure Runways

ID Width Length Bearing (true) Bearing (mag) Surface Threshold Offset Overrun Length
05 197 ft / 60 m 8,130 ft / 2,478 m 45.08° 45.81° Asphalt 0 ft / 0 m 410 ft / 125 m
05R 98 ft / 30 m 3,093 ft / 943 m 44.78° 45.51° Dirt 0 ft / 0 m 0 ft / 0 m
23 197 ft / 60 m 8,130 ft / 2,478 m 225.10° 225.83° Asphalt 0 ft / 0 m 492 ft / 150 m
23L 98 ft / 30 m 3,093 ft / 943 m 224.79° 225.52° Dirt 0 ft / 0 m 0 ft / 0 m

LEBZ

Details ICAO LEBZ (BJZ)
Name Talavera La Real
Region Spain
Timezone Europe/Madrid (UTC+1.0)
Stats Elevation 609 ft / 186 m (AMSL)
Location 38.891271° -6.821256°
Runways 1
Magnetic Variation 1.620° W

METAR

LEBZ 131100Z 12005KT 080V150 CAVOK 07/04 Q1030

Decode

TAF

TAF LEBZ 130500Z 1306/1406 VRB02KT CAVOK TX13/1315Z TN02/1308Z

Decode

Destination Runways

ID Width Length Bearing (true) Bearing (mag) Surface Threshold Offset Overrun Length
13 197 ft / 60 m 9,350 ft / 2,850 m 125.72° 127.34° Asphalt 0 ft / 0 m 980 ft / 299 m
31 197 ft / 60 m 9,350 ft / 2,850 m 305.74° 307.36° Asphalt 0 ft / 0 m 980 ft / 299 m

Approach Navaids

Runway Type Ident Frequency Range Bearing (true) Bearing (mag) Slope Elevation
31 Localiser ITL 110.50 MHz 18 nm / 33 km 305.70° 307.32° - 609 ft / 186 m (AMSL)
31 Glidescope ITL 110.50 MHz 10 nm / 19 km 305.73° 307.35° 3.00° 609 ft / 186 m (AMSL)
31 DME ITL 110.50 MHz 18 nm / 33 km - - - 639 ft / 195 m (AMSL)

Popular Alternatives